Time,TemperatureF,DewpointF,PressureIn,WindDirection,WindDirectionDegrees,WindSpeedMPH,WindSpeedGustMPH,Humidity,HourlyPrecipIn,Conditions,Clouds,dailyrainin,SolarRadiationWatts/m^2,SoftwareType,DateUTC
2013-01-18 00:12:00,28.0,18.0,-100.00,West,264,0.0,3.0,67,0.00,,,0.00,1.000000,,2013-01-18 06:12:00,
2013-01-18 00:22:00,28.0,18.0,-100.00,West,264,0.0,3.0,67,0.00,,,0.00,1.000000,,2013-01-18 06:22:00,
2013-01-18 00:33:00,28.0,18.0,-100.00,West,264,0.0,3.0,67,0.00,,,0.00,1.000000,,2013-01-18 06:33:00,
2013-01-18 00:43:00,28.0,18.0,-100.00,West,264,0.0,3.0,67,0.00,,,0.00,1.000000,,2013-01-18 06:43:00,
2013-01-18 00:52:00,28.0,18.0,-100.00,West,264,0.0,3.0,67,0.00,,,0.00,1.000000,,2013-01-18 06:52:00,
2013-01-18 01:12:00,26.0,19.0,-100.00,West,271,0.0,3.0,76,0.00,,,0.00,1.000000,,2013-01-18 07:12:00,
2013-01-18 01:22:00,26.0,19.0,-100.00,West,271,0.0,3.0,76,0.00,,,0.00,1.000000,,2013-01-18 07:22:00,
2013-01-18 01:32:00,26.0,19.0,-100.00,West,271,0.0,3.0,76,0.00,,,0.00,1.000000,,2013-01-18 07:32:00,
2013-01-18 01:42:00,26.0,19.0,-100.00,West,271,0.0,3.0,76,0.00,,,0.00,1.000000,,2013-01-18 07:42:00,
2013-01-18 01:52:00,26.0,19.0,-100.00,West,271,0.0,3.0,76,0.00,,,0.00,1.000000,,2013-01-18 07:52:00,
2013-01-18 02:12:00,24.0,19.0,-100.00,NNW,340,0.0,2.0,82,0.00,,,0.00,1.000000,,2013-01-18 08:12:00,
2013-01-18 02:22:00,24.0,19.0,-100.00,NNW,340,0.0,2.0,82,0.00,,,0.00,1.000000,,2013-01-18 08:22:00,
2013-01-18 02:32:00,24.0,19.0,-100.00,NNW,340,0.0,2.0,82,0.00,,,0.00,1.000000,,2013-01-18 08:32:00,
2013-01-18 02:42:00,24.0,19.0,-100.00,NNW,340,0.0,2.0,82,0.00,,,0.00,1.000000,,2013-01-18 08:42:00,
2013-01-18 02:52:00,24.0,19.0,-100.00,NNW,340,0.0,2.0,82,0.00,,,0.00,1.000000,,2013-01-18 08:52:00,
2013-01-18 03:12:00,24.0,18.0,-100.00,West,262,3.0,4.0,77,0.00,,,0.00,1.000000,,2013-01-18 09:12:00,
2013-01-18 03:22:00,24.0,18.0,-100.00,West,262,3.0,4.0,77,0.00,,,0.00,1.000000,,2013-01-18 09:22:00,
2013-01-18 03:33:00,24.0,18.0,-100.00,West,262,3.0,4.0,77,0.00,,,0.00,1.000000,,2013-01-18 09:33:00,
2013-01-18 03:42:00,24.0,18.0,-100.00,West,262,3.0,4.0,77,0.00,,,0.00,1.000000,,2013-01-18 09:42:00,
2013-01-18 03:52:00,24.0,18.0,-100.00,West,262,3.0,4.0,77,0.00,,,0.00,1.000000,,2013-01-18 09:52:00,
2013-01-18 04:12:00,23.0,19.0,-100.00,WSW,237,0.0,4.0,83,0.00,,,0.00,1.000000,,2013-01-18 10:12:00,
2013-01-18 04:22:00,23.0,19.0,-100.00,WSW,237,0.0,4.0,83,0.00,,,0.00,1.000000,,2013-01-18 10:22:00,
2013-01-18 04:32:00,23.0,19.0,-100.00,WSW,237,0.0,4.0,83,0.00,,,0.00,1.000000,,2013-01-18 10:32:00,
2013-01-18 04:42:00,23.0,19.0,-100.00,WSW,237,0.0,4.0,83,0.00,,,0.00,1.000000,,2013-01-18 10:42:00,
2013-01-18 04:52:00,23.0,19.0,-100.00,WSW,237,0.0,4.0,83,0.00,,,0.00,1.000000,,2013-01-18 10:52:00,
2013-01-18 05:12:00,22.0,18.0,-100.00,NW,307,0.0,0.0,83,0.00,,,0.00,1.000000,,2013-01-18 11:12:00,
2013-01-18 05:23:00,22.0,18.0,-100.00,NW,307,0.0,0.0,83,0.00,,,0.00,1.000000,,2013-01-18 11:23:00,
2013-01-18 05:32:00,22.0,18.0,-100.00,NW,307,0.0,0.0,83,0.00,,,0.00,1.000000,,2013-01-18 11:32:00,
2013-01-18 05:42:00,22.0,18.0,-100.00,NW,307,0.0,0.0,83,0.00,,,0.00,1.000000,,2013-01-18 11:42:00,
2013-01-18 05:52:00,22.0,18.0,-100.00,NW,307,0.0,0.0,83,0.00,,,0.00,1.000000,,2013-01-18 11:52:00,
2013-01-18 06:12:00,22.0,18.0,-100.00,West,273,0.0,1.0,85,0.00,,,0.00,1.000000,,2013-01-18 12:12:00,
2013-01-18 06:22:00,22.0,18.0,-100.00,West,273,0.0,1.0,85,0.00,,,0.00,1.000000,,2013-01-18 12:22:00,
2013-01-18 06:33:00,22.0,18.0,-100.00,West,273,0.0,1.0,85,0.00,,,0.00,1.000000,,2013-01-18 12:33:00,
2013-01-18 06:43:00,22.0,18.0,-100.00,West,273,0.0,1.0,85,0.00,,,0.00,1.000000,,2013-01-18 12:43:00,
2013-01-18 06:52:00,22.0,18.0,-100.00,West,273,0.0,1.0,85,0.00,,,0.00,1.000000,,2013-01-18 12:52:00,
2013-01-18 06:53:00,21.0,17.0,-100.00,West,263,2.0,3.0,84,0.00,,,0.00,1.000000,,2013-01-18 12:53:00,
2013-01-18 07:12:00,21.0,17.0,-100.00,West,263,2.0,3.0,84,0.00,,,0.00,1.000000,,2013-01-18 13:12:00,
2013-01-18 07:23:00,21.0,17.0,-100.00,West,263,2.0,3.0,84,0.00,,,0.00,1.000000,,2013-01-18 13:23:00,
2013-01-18 07:33:00,21.0,17.0,-100.00,West,263,2.0,3.0,84,0.00,,,0.00,1.000000,,2013-01-18 13:33:00,
2013-01-18 07:43:00,21.0,17.0,-100.00,West,263,2.0,3.0,84,0.00,,,0.00,1.000000,,2013-01-18 13:43:00,
2013-01-18 07:53:00,22.0,17.0,-100.00,WNW,287,0.0,4.0,82,0.00,,,0.00,25.000000,,2013-01-18 13:53:00,
2013-01-18 08:23:00,22.0,17.0,-100.00,WNW,287,0.0,4.0,82,0.00,,,0.00,25.000000,,2013-01-18 14:23:00,
2013-01-18 08:33:00,22.0,17.0,-100.00,WNW,287,0.0,4.0,82,0.00,,,0.00,25.000000,,2013-01-18 14:33:00,
2013-01-18 08:42:00,22.0,17.0,-100.00,WNW,287,0.0,4.0,82,0.00,,,0.00,25.000000,,2013-01-18 14:42:00,
2013-01-18 08:53:00,35.0,25.0,-100.00,South,190,1.0,3.0,67,0.00,,,0.00,219.000000,,2013-01-18 14:53:00,
2013-01-18 09:13:00,35.0,25.0,-100.00,South,190,1.0,3.0,67,0.00,,,0.00,219.000000,,2013-01-18 15:13:00,
2013-01-18 09:23:00,35.0,25.0,-100.00,South,190,1.0,3.0,67,0.00,,,0.00,219.000000,,2013-01-18 15:23:00,
2013-01-18 09:33:00,35.0,25.0,-100.00,South,190,1.0,3.0,67,0.00,,,0.00,219.000000,,2013-01-18 15:33:00,
2013-01-18 09:43:00,35.0,25.0,-100.00,South,190,1.0,3.0,67,0.00,,,0.00,219.000000,,2013-01-18 15:43:00,
2013-01-18 10:12:00,37.0,21.0,-100.00,South,180,7.0,11.0,51,0.00,,,0.00,393.000000,,2013-01-18 16:12:00,
2013-01-18 10:23:00,37.0,21.0,-100.00,South,180,7.0,11.0,51,0.00,,,0.00,393.000000,,2013-01-18 16:23:00,
2013-01-18 10:33:00,37.0,21.0,-100.00,South,180,7.0,11.0,51,0.00,,,0.00,393.000000,,2013-01-18 16:33:00,
2013-01-18 10:42:00,37.0,21.0,-100.00,South,180,7.0,11.0,51,0.00,,,0.00,393.000000,,2013-01-18 16:42:00,
2013-01-18 10:52:00,37.0,21.0,-100.00,South,180,7.0,11.0,51,0.00,,,0.00,393.000000,,2013-01-18 16:52:00,
2013-01-18 10:53:00,40.0,21.0,-100.00,South,181,6.0,10.0,47,0.00,,,0.00,537.000000,,2013-01-18 16:53:00,
2013-01-18 11:13:00,40.0,21.0,-100.00,South,181,6.0,10.0,47,0.00,,,0.00,537.000000,,2013-01-18 17:13:00,
2013-01-18 11:23:00,40.0,21.0,-100.00,South,181,6.0,10.0,47,0.00,,,0.00,537.000000,,2013-01-18 17:23:00,
2013-01-18 11:33:00,40.0,21.0,-100.00,South,181,6.0,10.0,47,0.00,,,0.00,537.000000,,2013-01-18 17:33:00,
2013-01-18 11:42:00,40.0,21.0,-100.00,South,181,6.0,10.0,47,0.00,,,0.00,537.000000,,2013-01-18 17:42:00,
2013-01-18 12:13:00,43.0,24.0,-100.00,SSE,153,7.0,12.0,47,0.00,,,0.00,624.000000,,2013-01-18 18:13:00,
2013-01-18 12:23:00,43.0,24.0,-100.00,SSE,153,7.0,12.0,47,0.00,,,0.00,624.000000,,2013-01-18 18:23:00,
2013-01-18 12:33:00,43.0,24.0,-100.00,SSE,153,7.0,12.0,47,0.00,,,0.00,624.000000,,2013-01-18 18:33:00,
2013-01-18 12:43:00,43.0,24.0,-100.00,SSE,153,7.0,12.0,47,0.00,,,0.00,624.000000,,2013-01-18 18:43:00,
2013-01-18 12:52:00,43.0,24.0,-100.00,SSE,153,7.0,12.0,47,0.00,,,0.00,624.000000,,2013-01-18 18:52:00,
2013-01-18 13:12:00,46.0,25.0,-100.00,South,184,7.0,13.0,44,0.00,,,0.00,645.000000,,2013-01-18 19:12:00,
2013-01-18 13:23:00,46.0,25.0,-100.00,South,184,7.0,13.0,44,0.00,,,0.00,645.000000,,2013-01-18 19:23:00,
2013-01-18 13:33:00,46.0,25.0,-100.00,South,184,7.0,13.0,44,0.00,,,0.00,645.000000,,2013-01-18 19:33:00,
2013-01-18 13:43:00,46.0,25.0,-100.00,South,184,7.0,13.0,44,0.00,,,0.00,645.000000,,2013-01-18 19:43:00,
2013-01-18 13:52:00,46.0,25.0,-100.00,South,184,7.0,13.0,44,0.00,,,0.00,645.000000,,2013-01-18 19:52:00,
2013-01-18 14:13:00,47.0,24.0,-100.00,SSW,194,10.0,15.0,40,0.00,,,0.00,601.000000,,2013-01-18 20:13:00,
2013-01-18 14:23:00,47.0,24.0,-100.00,SSW,194,10.0,15.0,40,0.00,,,0.00,601.000000,,2013-01-18 20:23:00,
2013-01-18 14:33:00,47.0,24.0,-100.00,SSW,194,10.0,15.0,40,0.00,,,0.00,601.000000,,2013-01-18 20:33:00,
2013-01-18 14:42:00,47.0,24.0,-100.00,SSW,194,10.0,15.0,40,0.00,,,0.00,601.000000,,2013-01-18 20:42:00,
2013-01-18 14:52:00,47.0,24.0,-100.00,SSW,194,10.0,15.0,40,0.00,,,0.00,601.000000,,2013-01-18 20:52:00,
2013-01-18 15:23:00,47.0,27.0,-100.00,South,170,8.0,16.0,45,0.00,,,0.00,493.000000,,2013-01-18 21:23:00,
2013-01-18 15:33:00,47.0,27.0,-100.00,South,170,8.0,16.0,45,0.00,,,0.00,493.000000,,2013-01-18 21:33:00,
2013-01-18 15:42:00,47.0,27.0,-100.00,South,170,8.0,16.0,45,0.00,,,0.00,493.000000,,2013-01-18 21:42:00,
2013-01-18 15:52:00,47.0,27.0,-100.00,South,170,8.0,16.0,45,0.00,,,0.00,493.000000,,2013-01-18 21:52:00,
2013-01-18 16:12:00,47.0,28.0,-100.00,South,184,8.0,18.0,47,0.00,,,0.00,333.000000,,2013-01-18 22:12:00,
2013-01-18 16:23:00,47.0,28.0,-100.00,South,184,8.0,18.0,47,0.00,,,0.00,333.000000,,2013-01-18 22:23:00,
2013-01-18 16:33:00,47.0,28.0,-100.00,South,184,8.0,18.0,47,0.00,,,0.00,333.000000,,2013-01-18 22:33:00,
2013-01-18 16:42:00,47.0,28.0,-100.00,South,184,8.0,18.0,47,0.00,,,0.00,333.000000,,2013-01-18 22:42:00,
2013-01-18 16:52:00,47.0,28.0,-100.00,South,184,8.0,18.0,47,0.00,,,0.00,333.000000,,2013-01-18 22:52:00,
2013-01-18 17:12:00,44.0,31.0,-100.00,SSW,196,9.0,14.0,59,0.00,,,0.00,141.000000,,2013-01-18 23:12:00,
2013-01-18 17:22:00,44.0,31.0,-100.00,SSW,196,9.0,14.0,59,0.00,,,0.00,141.000000,,2013-01-18 23:22:00,
2013-01-18 17:33:00,44.0,31.0,-100.00,SSW,196,9.0,14.0,59,0.00,,,0.00,141.000000,,2013-01-18 23:33:00,
2013-01-18 17:43:00,44.0,31.0,-100.00,SSW,196,9.0,14.0,59,0.00,,,0.00,141.000000,,2013-01-18 23:43:00,
2013-01-18 17:52:00,44.0,31.0,-100.00,SSW,196,9.0,14.0,59,0.00,,,0.00,141.000000,,2013-01-18 23:52:00,
2013-01-18 17:53:00,42.0,32.0,-100.00,SSW,209,9.0,17.0,67,0.00,,,0.00,9.000000,,2013-01-18 23:53:00,
2013-01-18 18:12:00,42.0,32.0,-100.00,SSW,209,9.0,17.0,67,0.00,,,0.00,9.000000,,2013-01-19 00:12:00,
2013-01-18 18:22:00,42.0,32.0,-100.00,SSW,209,9.0,17.0,67,0.00,,,0.00,9.000000,,2013-01-19 00:22:00,
2013-01-18 18:33:00,42.0,32.0,-100.00,SSW,209,9.0,17.0,67,0.00,,,0.00,9.000000,,2013-01-19 00:33:00,
2013-01-18 18:43:00,42.0,32.0,-100.00,SSW,209,9.0,17.0,67,0.00,,,0.00,9.000000,,2013-01-19 00:43:00,
2013-01-18 19:22:00,41.0,32.0,-100.00,SSW,211,6.0,12.0,69,0.00,,,0.00,1.000000,,2013-01-19 01:22:00,
2013-01-18 19:32:00,41.0,32.0,-100.00,SSW,211,6.0,12.0,69,0.00,,,0.00,1.000000,,2013-01-19 01:32:00,
2013-01-18 19:42:00,41.0,32.0,-100.00,SSW,211,6.0,12.0,69,0.00,,,0.00,1.000000,,2013-01-19 01:42:00,
2013-01-18 19:52:00,41.0,32.0,-100.00,SSW,211,6.0,12.0,69,0.00,,,0.00,1.000000,,2013-01-19 01:52:00,
2013-01-18 20:12:00,40.0,30.0,-100.00,SSW,199,6.0,10.0,66,0.00,,,0.00,1.000000,,2013-01-19 02:12:00,
2013-01-18 20:22:00,40.0,30.0,-100.00,SSW,199,6.0,10.0,66,0.00,,,0.00,1.000000,,2013-01-19 02:22:00,
2013-01-18 20:33:00,40.0,30.0,-100.00,SSW,199,6.0,10.0,66,0.00,,,0.00,1.000000,,2013-01-19 02:33:00,
2013-01-18 20:42:00,40.0,30.0,-100.00,SSW,199,6.0,10.0,66,0.00,,,0.00,1.000000,,2013-01-19 02:42:00,
2013-01-18 20:52:00,40.0,30.0,-100.00,SSW,199,6.0,10.0,66,0.00,,,0.00,1.000000,,2013-01-19 02:52:00,
2013-01-18 21:12:00,40.0,30.0,-100.00,SSW,205,7.0,12.0,67,0.00,,,0.00,1.000000,,2013-01-19 03:12:00,
2013-01-18 21:22:00,40.0,30.0,-100.00,SSW,205,7.0,12.0,67,0.00,,,0.00,1.000000,,2013-01-19 03:22:00,
2013-01-18 21:33:00,40.0,30.0,-100.00,SSW,205,7.0,12.0,67,0.00,,,0.00,1.000000,,2013-01-19 03:33:00,
2013-01-18 21:43:00,40.0,30.0,-100.00,SSW,205,7.0,12.0,67,0.00,,,0.00,1.000000,,2013-01-19 03:43:00,
2013-01-18 21:52:00,40.0,30.0,-100.00,SSW,205,7.0,12.0,67,0.00,,,0.00,1.000000,,2013-01-19 03:52:00,
2013-01-18 22:12:00,40.0,30.0,-100.00,SSW,205,8.0,12.0,67,0.00,,,0.00,1.000000,,2013-01-19 04:12:00,
2013-01-18 22:22:00,40.0,30.0,-100.00,SSW,205,8.0,12.0,67,0.00,,,0.00,1.000000,,2013-01-19 04:22:00,
2013-01-18 22:32:00,40.0,30.0,-100.00,SSW,205,8.0,12.0,67,0.00,,,0.00,1.000000,,2013-01-19 04:32:00,
2013-01-18 22:42:00,40.0,30.0,-100.00,SSW,205,8.0,12.0,67,0.00,,,0.00,1.000000,,2013-01-19 04:42:00,
2013-01-18 22:52:00,40.0,30.0,-100.00,SSW,205,8.0,12.0,67,0.00,,,0.00,1.000000,,2013-01-19 04:52:00,
2013-01-18 23:12:00,40.0,31.0,-100.00,SSW,208,9.0,16.0,69,0.00,,,0.00,1.000000,,2013-01-19 05:12:00,
2013-01-18 23:23:00,40.0,31.0,-100.00,SSW,208,9.0,16.0,69,0.00,,,0.00,1.000000,,2013-01-19 05:23:00,
2013-01-18 23:33:00,40.0,31.0,-100.00,SSW,208,9.0,16.0,69,0.00,,,0.00,1.000000,,2013-01-19 05:33:00,
2013-01-18 23:42:00,40.0,31.0,-100.00,SSW,208,9.0,16.0,69,0.00,,,0.00,1.000000,,2013-01-19 05:42:00,
2013-01-18 23:52:00,40.0,31.0,-100.00,SSW,208,9.0,16.0,69,0.00,,,0.00,1.000000,,2013-01-19 05:52:00,